createdAt,value
2017-05-11T00:01:47.000Z,85.80
2017-05-11T00:04:14.870Z,86.10
2017-05-11T00:06:42.726Z,85.70
2017-05-11T00:09:10.591Z,86.00
2017-05-11T00:11:38.443Z,84.30
2017-05-11T00:14:05.927Z,84.30
2017-05-11T00:16:33.383Z,85.50
2017-05-11T00:19:01.253Z,86.70
2017-05-11T00:21:29.111Z,86.90
2017-05-11T00:23:56.982Z,87.20
2017-05-11T00:26:24.440Z,87.20
2017-05-11T00:28:51.922Z,87.10
2017-05-11T00:31:19.387Z,85.50
2017-05-11T00:33:47.250Z,85.30
2017-05-11T00:36:15.104Z,86.30
2017-05-11T00:38:42.971Z,86.60
2017-05-11T00:41:10.820Z,85.90
2017-05-11T00:43:38.684Z,86.10
2017-05-11T00:46:06.535Z,86.50
2017-05-11T00:48:34.404Z,86.80
2017-05-11T00:51:02.252Z,86.50
2017-05-11T00:53:30.123Z,86.20
2017-05-11T00:55:57.974Z,84.50
2017-05-11T00:58:25.842Z,82.30
2017-05-11T01:00:53.700Z,81.00
2017-05-11T01:03:21.931Z,80.20
2017-05-11T01:05:49.389Z,80.20
2017-05-11T01:08:17.441Z,79.30
2017-05-11T01:10:45.289Z,79.60
2017-05-11T01:13:13.158Z,79.10
2017-05-11T01:15:41.013Z,78.60
2017-05-11T01:18:08.889Z,78.30
2017-05-11T01:20:36.740Z,78.30
2017-05-11T01:23:04.979Z,78.40
2017-05-11T01:25:32.435Z,78.40
2017-05-11T01:28:00.299Z,78.60
2017-05-11T01:30:28.153Z,78.50
2017-05-11T01:32:56.006Z,78.30
2017-05-11T01:35:23.870Z,78.10
2017-05-11T01:37:51.726Z,78.40
2017-05-11T01:40:19.195Z,78.40
2017-05-11T01:42:46.659Z,78.60
2017-05-11T01:45:14.528Z,78.70
2017-05-11T01:47:42.385Z,79.00
2017-05-11T01:50:10.251Z,79.00
2017-05-11T01:52:37.704Z,79.00
2017-05-11T01:55:05.176Z,78.80
2017-05-11T01:57:33.028Z,78.00
2017-05-11T02:00:00.899Z,78.00
2017-05-11T02:02:28.748Z,78.10
2017-05-11T02:04:56.216Z,78.10
2017-05-11T02:07:23.671Z,78.40
2017-05-11T02:09:51.562Z,78.60
2017-05-11T02:12:19.024Z,78.60
2017-05-11T02:14:46.871Z,78.70
2017-05-11T02:17:14.740Z,78.70
2017-05-11T02:19:42.611Z,78.90
2017-05-11T02:22:10.460Z,79.00
2017-05-11T02:24:37.930Z,79.00
2017-05-11T02:27:05.784Z,79.40
2017-05-11T02:29:33.646Z,79.30
2017-05-11T02:32:01.503Z,79.20
2017-05-11T02:34:29.373Z,79.20
2017-05-11T02:36:57.224Z,79.90
2017-05-11T02:39:25.092Z,80.40
2017-05-11T02:41:52.944Z,79.90
2017-05-11T02:44:21.179Z,79.80
2017-05-11T02:46:48.635Z,79.80
2017-05-11T02:49:16.503Z,79.80
2017-05-11T02:51:44.351Z,79.60
2017-05-11T02:54:12.227Z,79.70
2017-05-11T02:56:40.082Z,79.50
2017-05-11T02:59:07.951Z,80.20
2017-05-11T03:01:35.411Z,80.20
2017-05-11T03:04:03.280Z,81.00
2017-05-11T03:06:30.743Z,81.00
2017-05-11T03:08:58.608Z,80.20
2017-05-11T03:11:26.462Z,80.00
2017-05-11T03:13:54.327Z,80.30
2017-05-11T03:16:21.787Z,80.30
2017-05-11T03:18:49.659Z,80.00
2017-05-11T03:21:17.511Z,79.80
2017-05-11T03:23:45.358Z,79.80
2017-05-11T03:26:13.223Z,79.80
2017-05-11T03:28:41.318Z,79.90
2017-05-11T03:31:09.166Z,79.80
2017-05-11T03:33:36.644Z,79.80
2017-05-11T03:36:04.102Z,79.90
2017-05-11T03:38:31.975Z,79.80
2017-05-11T03:40:59.828Z,79.90
2017-05-11T03:43:27.297Z,79.80
2017-05-11T03:45:55.163Z,79.90
2017-05-11T03:48:23.029Z,79.80
2017-05-11T03:50:50.489Z,79.80
2017-05-11T03:53:17.959Z,79.80
2017-05-11T03:55:45.806Z,79.80
2017-05-11T03:58:13.281Z,79.80
2017-05-11T04:00:40.733Z,79.70
2017-05-11T04:03:08.600Z,79.70
2017-05-11T04:05:36.452Z,79.70
2017-05-11T04:08:03.929Z,79.70
2017-05-11T04:10:31.400Z,79.50
2017-05-11T04:12:58.881Z,79.50
2017-05-11T04:15:26.340Z,79.50
2017-05-11T04:17:54.218Z,79.80
2017-05-11T04:20:21.675Z,79.80
2017-05-11T04:22:49.545Z,79.90
2017-05-11T04:25:17.403Z,79.80
2017-05-11T04:27:44.876Z,79.80
2017-05-11T04:30:12.722Z,80.00
2017-05-11T04:32:40.586Z,79.90
2017-05-11T04:35:08.434Z,79.70
2017-05-11T04:37:36.302Z,79.10
2017-05-11T04:40:04.528Z,79.20
2017-05-11T04:42:31.998Z,79.20
2017-05-11T04:44:59.852Z,79.10
2017-05-11T04:47:27.331Z,79.10
2017-05-11T04:49:55.181Z,79.10
2017-05-11T04:52:23.048Z,78.90
2017-05-11T04:54:50.902Z,79.00
2017-05-11T04:57:18.771Z,78.70
2017-05-11T04:59:46.622Z,78.70
2017-05-11T05:02:14.488Z,78.60
2017-05-11T05:04:42.347Z,78.50
2017-05-11T05:07:10.212Z,78.40
2017-05-11T05:09:38.064Z,78.40
2017-05-11T05:12:05.936Z,78.40
2017-05-11T05:14:33.395Z,78.40
2017-05-11T05:17:00.871Z,78.60
2017-05-11T05:19:28.333Z,78.60
2017-05-11T05:21:56.211Z,78.40
2017-05-11T05:24:23.666Z,78.40
2017-05-11T05:26:51.523Z,78.10
2017-05-11T05:29:18.991Z,78.10
2017-05-11T05:31:46.855Z,78.00
2017-05-11T05:34:14.708Z,77.90
2017-05-11T05:36:42.574Z,77.70
2017-05-11T05:39:10.423Z,77.30
2017-05-11T05:41:37.878Z,77.30
2017-05-11T05:44:05.354Z,77.60
2017-05-11T05:46:32.839Z,77.60
2017-05-11T05:49:00.304Z,76.90
2017-05-11T05:51:28.170Z,76.80
2017-05-11T05:53:56.024Z,76.50
2017-05-11T05:56:23.892Z,76.50
2017-05-11T05:58:51.751Z,76.20
2017-05-11T06:01:19.224Z,76.20
2017-05-11T06:03:47.096Z,76.00
2017-05-11T06:06:14.572Z,76.00
2017-05-11T06:08:42.802Z,75.70
2017-05-11T06:11:10.263Z,75.70
2017-05-11T06:13:38.140Z,75.50
2017-05-11T06:16:06.010Z,75.30
2017-05-11T06:18:33.872Z,75.10
2017-05-11T06:21:01.753Z,75.10
2017-05-11T06:23:29.610Z,75.30
2017-05-11T06:25:57.079Z,75.20
2017-05-11T06:28:24.563Z,75.30
2017-05-11T06:30:52.424Z,75.00
2017-05-11T06:33:20.306Z,74.50
2017-05-11T06:35:47.771Z,74.50
2017-05-11T06:38:15.641Z,74.30
2017-05-11T06:40:43.499Z,74.40
2017-05-11T06:43:11.367Z,74.00
2017-05-11T06:45:38.826Z,73.90
2017-05-11T06:48:06.700Z,73.60
2017-05-11T06:50:34.568Z,73.50
2017-05-11T06:53:02.448Z,73.30
2017-05-11T06:55:30.310Z,73.10
2017-05-11T06:57:58.201Z,72.40
2017-05-11T07:00:25.671Z,72.40
2017-05-11T07:02:53.893Z,72.70
2017-05-11T07:05:21.763Z,71.60
2017-05-11T07:07:49.624Z,71.70
2017-05-11T07:10:17.091Z,71.70
2017-05-11T07:12:44.969Z,71.90
2017-05-11T07:15:12.822Z,71.00
2017-05-11T07:17:40.698Z,71.60
2017-05-11T07:20:08.559Z,71.50
2017-05-11T07:22:36.431Z,71.60
2017-05-11T07:25:04.295Z,71.10
2017-05-11T07:27:32.175Z,71.20
2017-05-11T07:29:59.641Z,71.20
2017-05-11T07:32:27.514Z,70.70
2017-05-11T07:34:54.980Z,70.70
2017-05-11T07:37:22.863Z,71.50
2017-05-11T07:39:50.723Z,72.10
2017-05-11T07:42:18.583Z,71.40
2017-05-11T07:44:46.831Z,71.80
2017-05-11T07:47:14.314Z,71.80
2017-05-11T07:49:42.182Z,70.70
2017-05-11T07:52:10.448Z,70.00
2017-05-11T07:54:38.322Z,69.70
2017-05-11T07:57:06.571Z,69.80
2017-05-11T07:59:34.431Z,68.90
2017-05-11T08:02:02.293Z,69.00
2017-05-11T08:04:30.179Z,70.60
2017-05-11T08:06:58.059Z,70.30
2017-05-11T08:09:25.532Z,70.30
2017-05-11T08:11:53.390Z,68.80
2017-05-11T08:14:21.264Z,69.20
2017-05-11T08:16:48.750Z,69.20
2017-05-11T08:19:16.218Z,68.60
2017-05-11T08:21:44.103Z,70.00
2017-05-11T08:24:11.968Z,68.60
2017-05-11T08:26:39.860Z,68.10
2017-05-11T08:29:08.702Z,68.90
2017-05-11T08:31:37.132Z,68.60
2017-05-11T08:34:05.010Z,69.20
2017-05-11T08:36:32.531Z,69.20
2017-05-11T08:39:00.400Z,69.60
2017-05-11T08:41:28.275Z,69.00
2017-05-11T08:43:56.463Z,69.10
2017-05-11T08:46:24.467Z,69.10
2017-05-11T08:48:52.519Z,69.60
2017-05-11T08:51:20.333Z,69.60
2017-05-11T08:53:48.753Z,69.40
2017-05-11T08:56:16.711Z,69.40
2017-05-11T08:58:44.938Z,69.50
2017-05-11T09:01:13.187Z,69.50
2017-05-11T09:03:41.844Z,69.20
2017-05-11T09:06:09.797Z,69.30
2017-05-11T09:08:37.745Z,69.20
2017-05-11T09:11:05.679Z,68.30
2017-05-11T09:13:33.575Z,68.10
2017-05-11T09:16:01.504Z,68.10
2017-05-11T09:18:29.559Z,69.50
2017-05-11T09:20:57.435Z,68.40
2017-05-11T09:23:25.666Z,67.20
2017-05-11T09:25:53.979Z,67.50
2017-05-11T09:28:21.456Z,67.50
2017-05-11T09:30:49.341Z,68.20
2017-05-11T09:33:16.812Z,68.20
2017-05-11T09:35:44.691Z,67.60
2017-05-11T09:38:12.166Z,67.60
2017-05-11T09:40:40.055Z,68.10
2017-05-11T09:43:08.484Z,68.00
2017-05-11T09:45:36.438Z,67.80
2017-05-11T09:48:04.318Z,67.70
2017-05-11T09:50:31.847Z,67.60
2017-05-11T09:52:59.303Z,67.90
2017-05-11T09:55:27.174Z,67.90
2017-05-11T09:57:55.032Z,67.40
2017-05-11T10:00:22.907Z,67.10
2017-05-11T10:02:50.764Z,67.20
2017-05-11T10:05:18.640Z,67.00
2017-05-11T10:07:46.671Z,67.00
2017-05-11T10:10:14.543Z,67.40
2017-05-11T10:12:42.770Z,67.50
2017-05-11T10:15:10.228Z,67.50
2017-05-11T10:17:38.097Z,68.00
2017-05-11T10:20:05.967Z,67.40
2017-05-11T10:22:33.824Z,66.80
2017-05-11T10:25:01.695Z,66.60
2017-05-11T10:27:29.555Z,67.30
2017-05-11T10:29:57.427Z,66.90
2017-05-11T10:32:24.894Z,66.80
2017-05-11T10:34:52.748Z,66.60
2017-05-11T10:37:20.776Z,67.90
2017-05-11T10:39:48.649Z,69.10
2017-05-11T10:42:16.111Z,69.10
2017-05-11T10:44:43.591Z,67.40
2017-05-11T10:47:11.452Z,67.30
2017-05-11T10:49:38.935Z,67.30
2017-05-11T10:52:06.789Z,66.90
2017-05-11T10:54:34.663Z,66.80
2017-05-11T10:57:02.519Z,67.20
2017-05-11T10:59:30.399Z,67.30
2017-05-11T11:01:58.259Z,67.00
2017-05-11T11:04:26.131Z,65.90
2017-05-11T11:06:53.595Z,65.90
2017-05-11T11:09:21.471Z,66.80
2017-05-11T11:11:48.930Z,66.80
2017-05-11T11:14:16.803Z,65.80
2017-05-11T11:16:44.264Z,65.80
2017-05-11T11:19:12.143Z,67.20
2017-05-11T11:21:40.000Z,65.90
2017-05-11T11:24:07.468Z,65.90
2017-05-11T11:26:34.941Z,65.40
2017-05-11T11:29:02.811Z,65.30
2017-05-11T11:31:30.663Z,66.60
2017-05-11T11:33:58.545Z,66.30
2017-05-11T11:36:26.399Z,67.80
2017-05-11T11:38:53.866Z,67.80
2017-05-11T11:41:21.735Z,64.60
2017-05-11T11:43:49.600Z,64.20
2017-05-11T11:46:17.470Z,64.20
2017-05-11T11:48:45.327Z,64.40
2017-05-11T11:51:13.206Z,64.00
2017-05-11T11:53:41.062Z,64.60
2017-05-11T11:56:08.544Z,64.60
2017-05-11T11:58:36.399Z,65.20
2017-05-11T12:01:03.864Z,65.20
2017-05-11T12:03:31.740Z,63.60
2017-05-11T12:05:59.612Z,63.10
2017-05-11T12:08:27.466Z,63.10
2017-05-11T12:10:55.331Z,63.60
2017-05-11T12:13:23.235Z,63.10
2017-05-11T12:15:51.113Z,63.50
2017-05-11T12:18:18.575Z,63.50
2017-05-11T12:20:46.055Z,64.10
2017-05-11T12:23:13.511Z,63.00
2017-05-11T12:25:41.378Z,62.30
2017-05-11T12:28:09.235Z,62.60
2017-05-11T12:30:37.107Z,64.80
2017-05-11T12:33:04.567Z,64.80
2017-05-11T12:35:32.038Z,63.50
2017-05-11T12:37:59.898Z,63.20
2017-05-11T12:40:27.771Z,63.70
2017-05-11T12:42:55.234Z,63.70
2017-05-11T12:45:23.112Z,62.80
2017-05-11T12:47:50.970Z,62.80
2017-05-11T12:50:19.230Z,62.80
2017-05-11T12:52:47.094Z,63.10
2017-05-11T12:55:14.572Z,63.10
2017-05-11T12:57:42.431Z,63.40
2017-05-11T13:00:10.310Z,63.40
2017-05-11T13:02:38.171Z,64.40
2017-05-11T13:05:06.048Z,64.40
2017-05-11T13:07:33.903Z,63.30
2017-05-11T13:10:01.775Z,63.90
2017-05-11T13:12:29.891Z,64.40
2017-05-11T13:14:57.767Z,64.10
2017-05-11T13:17:25.627Z,63.80
2017-05-11T13:19:53.498Z,63.20
2017-05-11T13:22:21.364Z,61.30
2017-05-11T13:24:48.846Z,61.30
2017-05-11T13:27:16.309Z,61.70
2017-05-11T13:29:44.167Z,61.20
2017-05-11T13:32:12.040Z,61.40
2017-05-11T13:34:39.910Z,61.70
2017-05-11T13:37:07.771Z,61.60
2017-05-11T13:39:35.255Z,61.60
2017-05-11T13:42:03.113Z,61.90
2017-05-11T13:44:30.967Z,62.20
2017-05-11T13:46:58.847Z,62.20
2017-05-11T13:49:26.721Z,62.30
2017-05-11T13:51:54.585Z,62.90
2017-05-11T13:54:22.067Z,62.90
2017-05-11T13:56:49.535Z,62.80
2017-05-11T13:59:17.411Z,62.90
2017-05-11T14:01:45.267Z,62.30
2017-05-11T14:04:12.744Z,62.30
2017-05-11T14:06:40.603Z,63.70
2017-05-11T14:09:08.476Z,62.10
2017-05-11T14:11:36.338Z,62.60
2017-05-11T14:14:04.210Z,62.00
2017-05-11T14:16:32.063Z,62.40
2017-05-11T14:18:59.940Z,62.80
2017-05-11T14:21:27.798Z,63.30
2017-05-11T14:23:55.667Z,63.80
2017-05-11T14:26:23.526Z,63.20
2017-05-11T14:28:51.002Z,63.20
2017-05-11T14:31:18.460Z,64.20
2017-05-11T14:33:45.938Z,63.10
2017-05-11T14:36:13.790Z,62.70
2017-05-11T14:38:41.280Z,62.70
2017-05-11T14:41:09.144Z,63.50
2017-05-11T14:43:36.619Z,63.50
2017-05-11T14:46:04.849Z,63.00
2017-05-11T14:48:32.727Z,62.10
2017-05-11T14:51:00.586Z,61.70
2017-05-11T14:53:28.464Z,63.90
2017-05-11T14:55:56.322Z,62.50
2017-05-11T14:58:24.195Z,62.10
2017-05-11T15:00:52.054Z,63.30
2017-05-11T15:03:19.928Z,62.10
2017-05-11T15:05:47.782Z,61.50
2017-05-11T15:08:15.663Z,62.10
2017-05-11T15:10:43.535Z,64.60
2017-05-11T15:13:11.407Z,64.00
2017-05-11T15:15:39.263Z,64.10
2017-05-11T15:18:07.138Z,62.60
2017-05-11T15:20:34.998Z,62.60
2017-05-11T15:23:02.875Z,63.10
2017-05-11T15:25:30.735Z,63.50
2017-05-11T15:27:58.211Z,63.50
2017-05-11T15:30:26.435Z,62.10
2017-05-11T15:32:55.124Z,62.80
2017-05-11T15:35:22.980Z,61.70
2017-05-11T15:37:50.841Z,62.70
2017-05-11T15:40:19.712Z,61.70
2017-05-11T15:42:47.655Z,64.20
2017-05-11T15:45:15.512Z,63.40
2017-05-11T15:47:42.991Z,63.40
2017-05-11T15:50:10.463Z,64.00
2017-05-11T15:52:38.334Z,63.20
2017-05-11T15:55:06.195Z,63.00
2017-05-11T15:57:34.071Z,62.80
2017-05-11T16:00:01.931Z,61.90
2017-05-11T16:02:29.806Z,62.20
2017-05-11T16:04:57.267Z,62.30
2017-05-11T16:07:24.744Z,61.70
2017-05-11T16:09:52.208Z,62.40
2017-05-11T16:12:20.087Z,63.60
2017-05-11T16:14:47.945Z,62.90
2017-05-11T16:17:15.820Z,63.60
2017-05-11T16:19:43.285Z,63.60
2017-05-11T16:22:10.763Z,61.10
2017-05-11T16:24:38.632Z,63.50
2017-05-11T16:27:06.113Z,63.50
2017-05-11T16:29:33.974Z,63.60
2017-05-11T16:32:02.001Z,64.60
2017-05-11T16:34:29.458Z,64.60
2017-05-11T16:36:57.347Z,65.30
2017-05-11T16:39:24.803Z,65.30
2017-05-11T16:41:52.683Z,63.40
2017-05-11T16:44:20.539Z,64.00
2017-05-11T16:46:47.999Z,64.00
2017-05-11T16:49:15.483Z,65.20
2017-05-11T16:51:43.338Z,62.40
2017-05-11T16:54:10.819Z,62.40
2017-05-11T16:56:38.670Z,65.40
2017-05-11T16:59:06.145Z,65.40
2017-05-11T17:01:34.013Z,65.90
2017-05-11T17:04:01.889Z,66.60
2017-05-11T17:06:29.739Z,65.50
2017-05-11T17:08:57.618Z,65.60
2017-05-11T17:11:25.478Z,66.80
2017-05-11T17:13:52.963Z,66.80
2017-05-11T17:16:21.190Z,65.20
2017-05-11T17:18:48.671Z,65.20
2017-05-11T17:21:16.534Z,66.30
2017-05-11T17:23:44.411Z,67.10
2017-05-11T17:26:12.272Z,68.80
2017-05-11T17:28:40.131Z,68.60
2017-05-11T17:31:08.008Z,68.50
2017-05-11T17:33:35.889Z,66.30
2017-05-11T17:36:03.748Z,66.90
2017-05-11T17:38:34.338Z,67.70
2017-05-11T17:41:02.201Z,68.40
2017-05-11T17:43:30.079Z,68.70
2017-05-11T17:45:57.943Z,70.30
2017-05-11T17:48:25.816Z,69.00
2017-05-11T17:50:53.676Z,70.10
2017-05-11T17:53:21.552Z,70.10
2017-05-11T17:55:49.410Z,70.60
2017-05-11T17:58:16.893Z,70.70
2017-05-11T18:00:44.354Z,70.50
2017-05-11T18:03:12.221Z,70.50
2017-05-11T18:05:40.080Z,71.00
2017-05-11T18:08:07.959Z,71.10
2017-05-11T18:10:35.832Z,71.50
2017-05-11T18:13:03.291Z,71.50
2017-05-11T18:15:30.778Z,71.30
2017-05-11T18:17:58.669Z,71.10
2017-05-11T18:20:26.795Z,71.70
2017-05-11T18:22:54.990Z,71.70
2017-05-11T18:25:23.307Z,72.00
2017-05-11T18:27:51.532Z,72.20
2017-05-11T18:30:19.871Z,72.20
2017-05-11T18:32:48.355Z,72.40
2017-05-11T18:35:16.335Z,72.40
2017-05-11T18:37:45.089Z,72.90
2017-05-11T18:40:13.117Z,72.90
2017-05-11T18:42:41.070Z,73.20
2017-05-11T18:45:09.235Z,73.30
2017-05-11T18:47:36.927Z,73.30
2017-05-11T18:50:05.044Z,73.80
2017-05-11T18:52:32.654Z,73.80
2017-05-11T18:55:01.847Z,73.50
2017-05-11T18:57:29.958Z,73.30
2017-05-11T18:59:58.273Z,73.80
2017-05-11T19:02:26.749Z,74.10
2017-05-11T19:04:55.316Z,74.20
2017-05-11T19:07:23.228Z,74.20
2017-05-11T19:09:52.207Z,74.20
2017-05-11T19:12:20.276Z,74.50
2017-05-11T19:14:48.162Z,74.50
2017-05-11T19:17:16.656Z,75.00
2017-05-11T19:19:44.945Z,74.90
2017-05-11T19:22:12.879Z,74.80
2017-05-11T19:24:41.190Z,75.10
2017-05-11T19:27:09.820Z,75.10
2017-05-11T19:29:37.912Z,75.30
2017-05-11T19:32:05.919Z,75.30
2017-05-11T19:34:33.888Z,75.30
2017-05-11T19:37:01.539Z,75.30
2017-05-11T19:39:29.993Z,75.10
2017-05-11T19:41:58.676Z,75.70
2017-05-11T19:44:26.660Z,75.80
2017-05-11T19:46:55.043Z,75.80
2017-05-11T19:49:23.011Z,75.90
2017-05-11T19:51:51.038Z,75.80
2017-05-11T19:54:20.179Z,75.80
2017-05-11T19:56:47.677Z,75.90
2017-05-11T19:59:16.817Z,75.90
2017-05-11T20:01:44.863Z,75.90
2017-05-11T20:04:13.993Z,76.40
2017-05-11T20:06:41.508Z,76.40
2017-05-11T20:09:09.176Z,76.20
2017-05-11T20:11:36.799Z,76.70
2017-05-11T20:14:04.671Z,76.60
2017-05-11T20:16:32.579Z,76.70
2017-05-11T20:19:00.447Z,76.80
2017-05-11T20:21:27.969Z,76.80
2017-05-11T20:23:56.645Z,76.80
2017-05-11T20:26:24.811Z,76.60
2017-05-11T20:28:53.628Z,76.80
2017-05-11T20:31:21.514Z,76.60
2017-05-11T20:33:49.587Z,76.40
2017-05-11T20:36:17.378Z,76.30
2017-05-11T20:38:45.602Z,76.30
2017-05-11T20:41:13.641Z,76.30
2017-05-11T20:43:42.030Z,76.40
2017-05-11T20:46:09.937Z,76.60
2017-05-11T20:48:37.808Z,76.90
2017-05-11T20:51:05.875Z,77.00
2017-05-11T20:53:33.939Z,77.00
2017-05-11T20:56:01.963Z,77.00
2017-05-11T20:58:30.103Z,76.90
2017-05-11T21:00:58.311Z,77.70
2017-05-11T21:03:26.043Z,77.70
2017-05-11T21:05:53.534Z,79.10
2017-05-11T21:08:21.643Z,80.30
2017-05-11T21:10:50.060Z,79.20
2017-05-11T21:13:18.756Z,79.20
2017-05-11T21:15:46.808Z,79.30
2017-05-11T21:18:14.675Z,79.50
2017-05-11T21:20:42.835Z,80.80
2017-05-11T21:23:11.302Z,82.90
2017-05-11T21:25:39.604Z,82.20
2017-05-11T21:28:07.139Z,82.20
2017-05-11T21:30:35.049Z,81.70
2017-05-11T21:33:03.073Z,81.60
2017-05-11T21:35:31.291Z,82.40
2017-05-11T21:37:59.165Z,81.90
2017-05-11T21:40:27.132Z,81.00
2017-05-11T21:42:54.711Z,81.00
2017-05-11T21:45:22.474Z,80.20
2017-05-11T21:47:50.978Z,81.80
2017-05-11T21:50:19.530Z,80.80
2017-05-11T21:52:47.403Z,80.80
2017-05-11T21:55:15.354Z,80.10
2017-05-11T21:57:43.676Z,80.40
2017-05-11T22:00:12.145Z,80.20
2017-05-11T22:02:40.292Z,80.20
2017-05-11T22:05:09.467Z,80.40
2017-05-11T22:07:37.194Z,80.20
2017-05-11T22:10:04.854Z,80.70
2017-05-11T22:12:32.499Z,80.50
2017-05-11T22:15:00.384Z,80.50
2017-05-11T22:17:28.367Z,80.50
2017-05-11T22:19:56.778Z,80.70
2017-05-11T22:22:24.727Z,80.70
2017-05-11T22:24:52.317Z,80.80
2017-05-11T22:27:20.838Z,81.00
2017-05-11T22:29:49.287Z,81.40
2017-05-11T22:32:17.339Z,81.50
2017-05-11T22:34:45.670Z,81.90
2017-05-11T22:37:13.911Z,82.00
2017-05-11T22:39:41.834Z,82.00
2017-05-11T22:42:10.288Z,82.20
2017-05-11T22:44:38.182Z,82.40
2017-05-11T22:47:05.654Z,82.40
2017-05-11T22:49:33.167Z,82.40
2017-05-11T22:52:01.031Z,82.10
2017-05-11T22:54:28.942Z,82.20
2017-05-11T22:56:56.900Z,82.30
2017-05-11T22:59:24.824Z,82.50
2017-05-11T23:01:52.701Z,82.60
2017-05-11T23:04:20.580Z,82.40
2017-05-11T23:06:49.022Z,82.50
2017-05-11T23:09:16.919Z,82.00
2017-05-11T23:11:44.800Z,82.50
2017-05-11T23:14:12.287Z,82.50
2017-05-11T23:16:40.168Z,83.20
2017-05-11T23:19:08.048Z,82.50
2017-05-11T23:21:35.548Z,82.50
2017-05-11T23:24:03.866Z,83.40
2017-05-11T23:26:31.356Z,83.40
2017-05-11T23:28:59.455Z,84.10
2017-05-11T23:31:27.646Z,84.00
2017-05-11T23:33:55.544Z,84.00
2017-05-11T23:36:23.979Z,84.80
2017-05-11T23:38:51.884Z,84.80
2017-05-11T23:41:19.564Z,85.10
2017-05-11T23:43:47.464Z,86.20
2017-05-11T23:46:15.462Z,86.30
2017-05-11T23:48:43.397Z,87.00
2017-05-11T23:51:12.631Z,87.00
2017-05-11T23:53:40.932Z,87.20
2017-05-11T23:56:08.905Z,87.00
2017-05-11T23:58:36.783Z,87.30
